Flight Track Log - Related Links

Times and Time Zones

All times are in EDT time to prevent confusion due to time zone crossing. See the AAL1805 flight status page for this flight to view local times or setup timezone preferences in your user account.

Time Position Orientation Groundspeed Altitude Reporting Facility
EDT Latitude Longitude Course Direction KTS MPH feet Rate Location/Type
Thu 08:13:57 PM 25.8020 -80.2680 90° East 174 200 400  Level FlightAware ADS-B
Thu 08:14:17 PM 25.7970 -80.2490 106° East 175 201 1,300 1,920 Climbing FlightAware ADS-B
Thu 08:14:47 PM 25.7860 -80.2240 116° Southeast 202 232 2,000 1,418 Climbing FlightAware ADS-B
Thu 08:15:12 PM 25.7760 -80.1960 112° Southeast 232 267 2,600 1,500 Climbing FlightAware ADS-B
Thu 08:15:27 PM 25.7690 -80.1800 116° Southeast 248 285 3,000 1,950 Climbing FlightAware ADS-B
Thu 08:15:52 PM 25.7580 -80.1510 113° Southeast 262 302 3,900 2,400 Climbing FlightAware ADS-B
Thu 08:16:07 PM 25.7470 -80.1330 124° Southeast 265 305 4,600 2,400 Climbing FlightAware ADS-B
Thu 08:16:22 PM 25.7320 -80.1230 149° Southeast 274 315 5,100 2,400 Climbing FlightAware ADS-B
Thu 08:16:52 PM 25.6970 -80.1040 154° Southeast 284 327 6,400 2,100 Climbing FlightAware ADS-B
Thu 08:17:02 PM 25.6900 -80.0950 131° Southeast 288 331 6,500 960 Climbing FlightAware ADS-B
Thu 08:17:17 PM 25.6800 -80.0710 115° Southeast 287 330 6,800 400 Climbing FlightAware ADS-B
Thu 08:17:47 PM 25.6770 -80.0290 95° East 289 333 6,800 400 Level FlightAware ADS-B
Thu 08:18:17 PM 25.6730 -79.9820 95° East 292 336 7,200 1,636 Climbing FlightAware ADS-B
Thu 08:18:42 PM 25.6710 -79.9460 94° East 297 342 8,300 2,618 Climbing FlightAware ADS-B
Thu 08:19:12 PM 25.6680 -79.9000 94° East 301 346 9,600 2,571 Climbing FlightAware ADS-B
Thu 08:19:52 PM 25.6630 -79.8360 95° East 309 356 11,300 2,541 Climbing FlightAware ADS-B
Thu 08:20:37 PM 25.6580 -79.7650 94° East 322 371 13,200 2,541 Climbing FlightAware ADS-B
Thu 08:21:17 PM 25.6540 -79.6970 94° East 333 383 14,900 2,625 Climbing FlightAware ADS-B
Thu 08:21:57 PM 25.6480 -79.6310 96° East 339 390 16,700 2,727 Climbing FlightAware ADS-B
Thu 08:22:12 PM 25.6360 -79.6080 120° Southeast 332 382 17,400 2,400 Climbing FlightAware ADS-B
Thu 08:22:27 PM 25.6180 -79.5930 143° Southeast 330 380 17,900 2,200 Climbing FlightAware ADS-B
Thu 08:22:42 PM 25.5950 -79.5840 161° South 332 382 18,500 2,073 Climbing FlightAware ADS-B
Thu 08:23:22 PM 25.5350 -79.5650 164° South 346 398 19,800 2,182 Climbing FlightAware ADS-B
Thu 08:24:32 PM 25.4250 -79.5280 163° South 354 407 22,500 1,667 Climbing FlightAware ADS-B
Thu 08:26:22 PM 25.2570 -79.4730 164° South 368 423 24,800 1,172 Climbing FlightAware ADS-B
Thu 08:31:47 PM 24.6330 -79.2710 164° South 456 525 31,000 1,019 Climbing FlightAware ADS-B
Thu 08:32:27 PM 24.5640 -79.2480 163° South 456 525 31,000  Level FlightAware ADS-B
Thu 08:33:07 PM 24.4950 -79.2250 163° South 456 525 31,000  Level FlightAware ADS-B
Thu 08:33:47 PM 24.4270 -79.2020 163° South 456 525 31,000  Level FlightAware ADS-B
Thu 08:34:37 PM 24.3410 -79.1730 163° South 456 525 31,000  Level FlightAware ADS-B
Thu 08:35:17 PM 24.2730 -79.1500 163° South 456 525 31,000  Level FlightAware ADS-B
Thu 08:35:57 PM 24.2040 -79.1270 163° South 456 525 31,000  Level FlightAware ADS-B
Thu 08:36:37 PM 24.1350 -79.1040 163° South 456 525 31,000  Level FlightAware ADS-B
Thu 08:37:17 PM 24.0670 -79.0810 163° South 456 525 31,000  Level FlightAware ADS-B
Thu 08:38:07 PM 23.9810 -79.0520 163° South 456 525 31,000  Level FlightAware ADS-B
Thu 08:38:47 PM 23.9120 -79.0290 163° South 456 525 31,000  Level FlightAware ADS-B
Thu 08:39:27 PM 23.8440 -79.0070 164° South 456 525 31,000  Level FlightAware ADS-B
Thu 08:40:07 PM 23.7750 -78.9840 163° South 456 525 31,000  Level FlightAware ADS-B
Thu 08:40:47 PM 23.7070 -78.9610 163° South 456 525 31,000  Level FlightAware ADS-B
Thu 08:45:00 PM 23.3320 -78.6285 141° Southeast  Level FlightAware Approximate
Thu 08:46:00 PM 23.2430 -78.5499 141° Southeast  Level FlightAware Approximate
Thu 08:47:00 PM 23.1539 -78.4715 141° Southeast  Level FlightAware Approximate
Thu 08:48:00 PM 23.0648 -78.3931 141° Southeast  Level FlightAware Approximate
Thu 08:49:00 PM 22.9757 -78.3148 141° Southeast  Level FlightAware Approximate
Thu 08:50:00 PM 22.8865 -78.2367 141° Southeast  Level FlightAware Approximate
Thu 08:51:00 PM 22.7973 -78.1586 141° Southeast  Level FlightAware Approximate
Thu 08:52:00 PM 22.7080 -78.0807 141° Southeast  Level FlightAware Approximate
Thu 08:53:00 PM 22.6188 -78.0028 141° Southeast  Level FlightAware Approximate
Thu 08:54:00 PM 22.5294 -77.9251 141° Southeast  Level FlightAware Approximate
Thu 08:55:00 PM 22.4401 -77.8474 141° Southeast  Level FlightAware Approximate
Thu 08:56:00 PM 22.3507 -77.7699 141° Southeast  Level FlightAware Approximate
Thu 08:57:00 PM 22.2612 -77.6924 141° Southeast  Level FlightAware Approximate
Thu 08:58:00 PM 22.1717 -77.6151 141° Southeast  Level FlightAware Approximate
Thu 08:59:00 PM 22.0822 -77.5378 141° Southeast  Level FlightAware Approximate
Thu 09:00:00 PM 21.9927 -77.4607 141° Southeast  Level FlightAware Approximate
Thu 09:01:00 PM 21.9031 -77.3836 141° Southeast  Level FlightAware Approximate
Thu 09:02:00 PM 21.8134 -77.3066 141° Southeast  Level FlightAware Approximate
Thu 09:03:00 PM 21.7238 -77.2298 141° Southeast  Level FlightAware Approximate
Thu 09:04:00 PM 21.6341 -77.1530 141° Southeast  Level FlightAware Approximate
Thu 09:05:00 PM 21.5444 -77.0763 142° Southeast  Level FlightAware Approximate
Thu 09:06:00 PM 21.4546 -76.9997 142° Southeast  Level FlightAware Approximate
Thu 09:07:00 PM 21.3648 -76.9233 142° Southeast  Level FlightAware Approximate
Thu 09:08:00 PM 21.2750 -76.8469 142° Southeast  Level FlightAware Approximate
Thu 09:09:00 PM 21.1851 -76.7706 142° Southeast  Level FlightAware Approximate
Thu 09:10:00 PM 21.0952 -76.6944 142° Southeast  Level FlightAware Approximate
Thu 09:11:00 PM 21.0053 -76.6182 142° Southeast  Level FlightAware Approximate
Thu 09:12:00 PM 20.9153 -76.5422 142° Southeast  Level FlightAware Approximate
Thu 09:13:00 PM 20.8253 -76.4663 142° Southeast  Level FlightAware Approximate
Thu 09:14:00 PM 20.7352 -76.3905 142° Southeast  Level FlightAware Approximate
Thu 09:15:00 PM 20.6452 -76.3147 142° Southeast  Level FlightAware Approximate
Thu 09:16:00 PM 20.5551 -76.2391 142° Southeast  Level FlightAware Approximate
Thu 09:17:00 PM 20.4649 -76.1635 142° Southeast  Level FlightAware Approximate
Thu 09:18:00 PM 20.3748 -76.0880 142° Southeast  Level FlightAware Approximate
Thu 09:19:00 PM 20.2846 -76.0126 142° Southeast  Level FlightAware Approximate
Thu 09:20:00 PM 20.1943 -75.9373 142° Southeast  Level FlightAware Approximate
Thu 09:21:00 PM 20.1041 -75.8621 142° Southeast  Level FlightAware Approximate
Thu 09:22:00 PM 20.0138 -75.7869 142° Southeast  Level FlightAware Approximate
Thu 09:23:00 PM 19.9234 -75.7119 142° Southeast  Level FlightAware Approximate
Thu 09:24:00 PM 19.8331 -75.6369 142° Southeast  Level FlightAware Approximate
Thu 09:25:00 PM 19.7427 -75.5621 142° Southeast  Level FlightAware Approximate
Thu 09:26:00 PM 19.6523 -75.4873 142° Southeast  Level FlightAware Approximate
Thu 09:27:00 PM 19.5618 -75.4126 142° Southeast  Level FlightAware Approximate
Thu 09:28:00 PM 19.4713 -75.3380 142° Southeast  Level FlightAware Approximate
Thu 09:29:00 PM 19.3808 -75.2634 142° Southeast  Level FlightAware Approximate
Thu 09:30:00 PM 19.2903 -75.1889 142° Southeast  Level FlightAware Approximate
Thu 09:31:00 PM 19.1997 -75.1146 142° Southeast  Level FlightAware Approximate
Thu 09:32:00 PM 19.1091 -75.0403 142° Southeast  Level FlightAware Approximate
Thu 09:33:00 PM 19.0184 -74.9661 142° Southeast  Level FlightAware Approximate
Thu 09:34:00 PM 18.9278 -74.8920 142° Southeast  Level FlightAware Approximate
Thu 09:35:00 PM 18.8371 -74.8179 142° Southeast  Level FlightAware Approximate
Thu 09:36:00 PM 18.7463 -74.7439 142° Southeast  Level FlightAware Approximate
Thu 09:37:00 PM 18.6535 -74.6708 143° Southeast  Level FlightAware Approximate
Thu 09:38:00 PM 18.5614 -74.5988 143° Southeast  Level FlightAware Approximate
Thu 09:39:00 PM 18.4693 -74.5268 143° Southeast  Level FlightAware Approximate
Thu 09:40:00 PM 18.3772 -74.4549 143° Southeast  Level FlightAware Approximate
Thu 09:41:00 PM 18.2851 -74.3831 144° Southeast  Level FlightAware Approximate
Thu 09:42:00 PM 18.1929 -74.3114 144° Southeast  Level FlightAware Approximate
Thu 09:43:00 PM 18.1007 -74.2398 144° Southeast  Level FlightAware Approximate
Thu 09:44:00 PM 18.0085 -74.1682 144° Southeast  Level FlightAware Approximate
Thu 09:45:00 PM 17.9162 -74.0967 144° Southeast  Level FlightAware Approximate
Thu 09:46:00 PM 17.8240 -74.0253 144° Southeast  Level FlightAware Approximate
Thu 09:47:00 PM 17.7317 -73.9540 144° Southeast  Level FlightAware Approximate
Thu 09:48:00 PM 17.6399 -73.8819 143° Southeast  Level FlightAware Approximate
Thu 09:49:00 PM 17.5488 -73.8090 143° Southeast  Level FlightAware Approximate
Thu 09:50:00 PM 17.4577 -73.7361 143° Southeast  Level FlightAware Approximate
Thu 09:51:00 PM 17.3665 -73.6633 143° Southeast  Level FlightAware Approximate
Thu 09:52:00 PM 17.2753 -73.5906 143° Southeast  Level FlightAware Approximate
Thu 09:53:00 PM 17.1841 -73.5180 143° Southeast  Level FlightAware Approximate
Thu 09:54:00 PM 17.0928 -73.4454 143° Southeast  Level FlightAware Approximate
Thu 09:55:00 PM 17.0016 -73.3729 143° Southeast  Level FlightAware Approximate
Thu 09:56:00 PM 16.9103 -73.3005 143° Southeast  Level FlightAware Approximate
Thu 09:57:00 PM 16.8189 -73.2282 143° Southeast  Level FlightAware Approximate
Thu 09:58:00 PM 16.7223 -73.1544 144° Southeast  Level FlightAware Approximate
Thu 09:59:00 PM 16.6248 -73.0818 144° Southeast  Level FlightAware Approximate
Thu 10:00:00 PM 16.5274 -73.0092 144° Southeast  Level FlightAware Approximate
Thu 10:01:00 PM 16.4299 -72.9367 144° Southeast  Level FlightAware Approximate
Thu 10:02:00 PM 16.3325 -72.8643 145° Southeast  Level FlightAware Approximate
Thu 10:03:00 PM 16.2349 -72.7919 145° Southeast  Level FlightAware Approximate
Thu 10:04:00 PM 16.1374 -72.7197 145° Southeast  Level FlightAware Approximate
Thu 10:05:00 PM 16.0404 -72.6466 144° Southeast  Level FlightAware Approximate
Thu 10:06:00 PM 15.9435 -72.5735 144° Southeast  Level FlightAware Approximate
Thu 10:07:00 PM 15.8465 -72.5006 144° Southeast  Level FlightAware Approximate
Thu 10:08:00 PM 15.7495 -72.4277 144° Southeast  Level FlightAware Approximate
Thu 10:09:00 PM 15.6524 -72.3548 144° Southeast  Level FlightAware Approximate
Thu 10:10:00 PM 15.5554 -72.2820 144° Southeast  Level FlightAware Approximate
Thu 10:11:00 PM 15.4583 -72.2093 144° Southeast  Level FlightAware Approximate
Thu 10:12:00 PM 15.3612 -72.1367 144° Southeast  Level FlightAware Approximate
Thu 10:13:00 PM 15.2641 -72.0641 144° Southeast  Level FlightAware Approximate
Thu 10:14:00 PM 15.1669 -71.9917 144° Southeast  Level FlightAware Approximate
Thu 10:15:00 PM 15.0697 -71.9192 144° Southeast  Level FlightAware Approximate
Thu 10:16:00 PM 14.9725 -71.8469 144° Southeast  Level FlightAware Approximate
Thu 10:17:00 PM 14.8753 -71.7746 144° Southeast  Level FlightAware Approximate
Thu 10:18:00 PM 14.7781 -71.7023 144° Southeast  Level FlightAware Approximate
Thu 10:19:00 PM 14.6808 -71.6302 144° Southeast  Level FlightAware Approximate
Thu 10:20:00 PM 14.5835 -71.5581 144° Southeast  Level FlightAware Approximate
Thu 10:21:00 PM 14.4862 -71.4860 144° Southeast  Level FlightAware Approximate
Thu 10:22:00 PM 14.3889 -71.4140 144° Southeast  Level FlightAware Approximate
Thu 10:23:00 PM 14.2915 -71.3421 144° Southeast  Level FlightAware Approximate
Thu 10:24:00 PM 14.1941 -71.2703 144° Southeast  Level FlightAware Approximate
Thu 10:25:00 PM 14.1050 -71.1883 136° Southeast  Level FlightAware Approximate
Thu 10:26:00 PM 14.0036 -71.1245 140° Southeast  Level FlightAware Approximate
Thu 10:27:00 PM 13.9110 -71.0464 149° Southeast  Level FlightAware Approximate
Thu 10:28:00 PM 13.8086 -70.9825 149° Southeast  Level FlightAware Approximate
Thu 10:29:00 PM 13.7117 -70.9103 143° Southeast  Level FlightAware Approximate
Thu 10:30:00 PM 13.6166 -70.8356 143° Southeast  Level FlightAware Approximate
Thu 10:31:00 PM 13.5209 -70.7615 144° Southeast  Level FlightAware Approximate
Thu 10:32:00 PM 13.4242 -70.6889 144° Southeast  Level FlightAware Approximate
Thu 10:33:00 PM 13.3275 -70.6163 144° Southeast  Level FlightAware Approximate
Thu 10:34:00 PM 13.2308 -70.5438 144° Southeast  Level FlightAware Approximate
Thu 10:35:00 PM 13.1335 -70.4723 147° Southeast  Level FlightAware Approximate
Thu 10:36:00 PM 13.0331 -70.4054 147° Southeast  Level FlightAware Approximate
Thu 10:37:00 PM 12.9367 -70.3327 142° Southeast  Level FlightAware Approximate
Thu 10:38:00 PM 12.8423 -70.2571 142° Southeast  Level FlightAware Approximate
Thu 10:39:00 PM 12.7459 -70.1844 144° Southeast  Level FlightAware Approximate

Login

Don't have an account? Register now (free) for customized features, flight alerts, and more!